Time;durP1;ratioP1;P1;durP2;ratioP2;P2;SDS_P1;SDS_P2;PMS_P1;PMS_P2;Temp;Humidity;BMP_temperature;BMP_pressure;BME280_temperature;BME280_humidity;BME280_pressure;Samples;Min_cycle;Max_cycle;Signal;HPM_P1;HPM_P2
2021/06/19 00:01:13;;;;;;;14.43;7.50;;;21.40;99.90;;;;;;5010049;28;20045;-72
2021/06/19 00:03:39;;;;;;;14.57;7.53;;;21.40;99.90;;;;;;5026822;28;20047;-73
2021/06/19 00:06:04;;;;;;;21.17;8.25;;;21.30;99.90;;;;;;5025729;28;20037;-71
2021/06/19 00:08:30;;;;;;;12.65;8.13;;;21.20;99.90;;;;;;5019288;28;20068;-73
2021/06/19 00:10:56;;;;;;;17.95;8.55;;;21.20;99.90;;;;;;5027552;28;20282;-73
2021/06/19 00:13:21;;;;;;;17.80;8.23;;;21.20;99.90;;;;;;5027813;28;20065;-71
2021/06/19 00:15:47;;;;;;;13.23;7.55;;;21.10;99.90;;;;;;5026836;28;20030;-73
2021/06/19 00:18:12;;;;;;;15.48;8.18;;;21.10;99.90;;;;;;5028066;28;20462;-73
2021/06/19 00:20:38;;;;;;;12.68;6.82;;;21.10;99.90;;;;;;5026936;28;20352;-72
2021/06/19 00:23:04;;;;;;;11.13;6.28;;;21.20;99.90;;;;;;5025021;28;20069;-72
2021/06/19 00:25:29;;;;;;;11.75;6.10;;;21.10;99.90;;;;;;5027489;28;20068;-72
2021/06/19 00:27:55;;;;;;;12.73;5.88;;;21.10;99.90;;;;;;5008237;28;20087;-72
2021/06/19 00:30:23;;;;;;;11.25;5.28;;;21.10;99.90;;;;;;5027523;28;20627;-72
2021/06/19 00:32:50;;;;;;;11.10;6.25;;;21.10;99.90;;;;;;5027427;28;20029;-72
2021/06/19 00:35:16;;;;;;;11.90;5.30;;;21.10;99.90;;;;;;5027784;28;20460;-72
2021/06/19 00:37:42;;;;;;;13.75;5.60;;;21.10;99.90;;;;;;5026621;28;20538;-73
2021/06/19 00:40:11;;;;;;;8.57;4.88;;;21.10;99.90;;;;;;5027411;28;20444;-73
2021/06/19 00:42:37;;;;;;;9.38;5.70;;;21.00;99.90;;;;;;5024501;28;20052;-72
2021/06/19 00:45:07;;;;;;;8.68;4.13;;;21.00;99.90;;;;;;5027524;28;20026;-71
2021/06/19 00:47:37;;;;;;;8.77;4.13;;;20.90;99.90;;;;;;5026670;28;20064;-72
2021/06/19 00:50:03;;;;;;;12.90;4.95;;;21.00;99.90;;;;;;5026785;28;20025;-71
2021/06/19 00:52:29;;;;;;;10.60;4.22;;;20.90;99.90;;;;;;5024327;28;20105;-72
2021/06/19 00:54:54;;;;;;;9.65;3.72;;;20.90;99.90;;;;;;5024021;28;20026;-73
2021/06/19 00:57:20;;;;;;;10.23;3.50;;;20.90;99.90;;;;;;5026781;28;20041;-72
2021/06/19 00:59:46;;;;;;;7.28;3.55;;;20.80;99.90;;;;;;5041946;28;20033;-72
2021/06/19 01:02:12;;;;;;;7.82;3.45;;;20.80;99.90;;;;;;5026496;28;20064;-73
2021/06/19 01:04:38;;;;;;;5.50;3.22;;;20.80;99.90;;;;;;5023353;28;20040;-72
2021/06/19 01:07:04;;;;;;;8.55;3.38;;;20.80;99.90;;;;;;5027167;28;20386;-72
2021/06/19 01:09:29;;;;;;;7.05;3.50;;;20.80;99.90;;;;;;5025942;28;20057;-73
2021/06/19 01:11:55;;;;;;;6.20;2.95;;;20.80;99.90;;;;;;5026878;28;20493;-73
2021/06/19 01:14:21;;;;;;;7.15;4.28;;;20.70;99.90;;;;;;5020494;28;20064;-71
2021/06/19 01:16:49;;;;;;;8.13;3.53;;;20.70;99.90;;;;;;5026507;28;20036;-73
2021/06/19 01:19:16;;;;;;;11.27;3.85;;;20.70;99.90;;;;;;5026373;28;20413;-73
2021/06/19 01:21:42;;;;;;;5.57;3.42;;;20.60;99.90;;;;;;5023407;28;20425;-73
2021/06/19 01:24:15;;;;;;;14.57;4.80;;;20.60;99.90;;;;;;5027218;28;20372;-73
2021/06/19 01:26:42;;;;;;;8.35;4.68;;;20.60;99.90;;;;;;5025953;28;20485;-71
2021/06/19 01:29:08;;;;;;;6.95;5.00;;;20.60;99.90;;;;;;5009020;28;20037;-72
2021/06/19 01:31:36;;;;;;;13.57;5.20;;;20.60;99.90;;;;;;5023870;28;20044;-73
2021/06/19 01:34:01;;;;;;;12.05;6.45;;;20.60;99.90;;;;;;5026539;28;20029;-72
2021/06/19 01:36:27;;;;;;;9.57;6.07;;;20.50;99.90;;;;;;5026662;28;20366;-70
2021/06/19 01:38:55;;;;;;;8.73;5.82;;;20.50;99.90;;;;;;5026367;28;20547;-72
2021/06/19 01:41:23;;;;;;;15.60;6.55;;;20.50;99.90;;;;;;5026032;28;20077;-72
2021/06/19 01:43:57;;;;;;;11.10;6.80;;;20.50;99.90;;;;;;5025949;28;20053;-71
2021/06/19 01:46:23;;;;;;;10.05;5.68;;;20.50;99.90;;;;;;5029269;28;20037;-72
2021/06/19 01:48:48;;;;;;;9.77;6.22;;;20.60;99.90;;;;;;5029501;28;20115;-72
2021/06/19 01:51:14;;;;;;;9.85;6.32;;;20.60;99.90;;;;;;5027144;28;20036;-73
2021/06/19 01:53:41;;;;;;;11.63;5.32;;;20.70;99.90;;;;;;5026005;28;20572;-72
2021/06/19 01:56:08;;;;;;;15.85;6.47;;;20.80;99.90;;;;;;5025774;28;20116;-73
2021/06/19 01:58:34;;;;;;;9.13;5.05;;;20.80;99.90;;;;;;5025493;28;20497;-71
2021/06/19 02:00:59;;;;;;;10.13;5.18;;;20.80;99.90;;;;;;5024973;28;20044;-72
2021/06/19 02:03:25;;;;;;;6.72;4.72;;;20.90;99.90;;;;;;5025672;28;20056;-72
2021/06/19 02:05:51;;;;;;;12.68;4.55;;;20.90;99.90;;;;;;5006536;28;20034;-72
2021/06/19 02:08:19;;;;;;;5.28;3.70;;;20.90;99.90;;;;;;5025620;28;20037;-73
2021/06/19 02:10:45;;;;;;;8.30;3.75;;;20.90;99.90;;;;;;5025282;28;20041;-73
2021/06/19 02:13:11;;;;;;;6.93;3.78;;;20.90;99.90;;;;;;5024664;28;20092;-73
2021/06/19 02:15:38;;;;;;;7.05;3.22;;;20.80;99.90;;;;;;5025437;28;20033;-73
2021/06/19 02:18:05;;;;;;;4.45;3.00;;;20.80;99.90;;;;;;5008116;28;20033;-73
2021/06/19 02:20:31;;;;;;;5.00;3.17;;;20.80;99.90;;;;;;5025153;28;20037;-72
2021/06/19 02:22:57;;;;;;;4.88;2.90;;;20.80;99.90;;;;;;5007718;28;20099;-73
2021/06/19 02:25:25;;;;;;;4.72;2.90;;;20.80;99.90;;;;;;5022026;28;20672;-72
2021/06/19 02:27:53;;;;;;;7.55;3.15;;;20.70;99.90;;;;;;5025768;28;20037;-73
2021/06/19 02:30:27;;;;;;;6.70;4.28;;;20.70;99.90;;;;;;5025493;28;20034;-72
2021/06/19 02:32:54;;;;;;;11.90;6.53;;;20.70;99.90;;;;;;5021699;28;20064;-72
2021/06/19 02:35:23;;;;;;;22.30;8.48;;;20.80;99.90;;;;;;5025749;28;20103;-73
2021/06/19 02:37:48;;;;;;;13.65;8.55;;;20.70;99.90;;;;;;5025000;28;20490;-72
2021/06/19 02:40:14;;;;;;;18.23;9.98;;;20.80;99.90;;;;;;5025571;28;20124;-72
2021/06/19 02:42:40;;;;;;;16.45;10.10;;;20.70;99.90;;;;;;5024904;28;20038;-73
2021/06/19 02:45:11;;;;;;;19.88;10.70;;;20.70;99.90;;;;;;5025159;28;20142;-72
2021/06/19 02:47:42;;;;;;;22.70;11.25;;;20.60;99.90;;;;;;5026314;28;20712;-72
2021/06/19 02:50:09;;;;;;;23.77;10.90;;;20.60;99.90;;;;;;5024792;28;20029;-73
2021/06/19 02:52:40;;;;;;;21.60;12.18;;;20.60;99.90;;;;;;5025087;28;20552;-73
2021/06/19 02:55:11;;;;;;;23.42;12.52;;;20.50;99.90;;;;;;5024998;28;20030;-73
2021/06/19 02:57:36;;;;;;;24.58;11.70;;;20.50;99.90;;;;;;5025707;28;20398;-73
2021/06/19 03:00:08;;;;;;;22.85;11.48;;;20.50;99.90;;;;;;5025193;28;20018;-73
2021/06/19 03:02:33;;;;;;;23.30;11.95;;;20.50;99.90;;;;;;5025121;28;20030;-73
2021/06/19 03:04:59;;;;;;;23.08;12.20;;;20.50;99.90;;;;;;5025038;28;20083;-73
2021/06/19 03:07:25;;;;;;;31.00;13.32;;;20.50;99.90;;;;;;5025113;28;20029;-73
2021/06/19 03:09:50;;;;;;;28.10;13.55;;;20.50;99.90;;;;;;5025446;28;20037;-74
2021/06/19 03:12:16;;;;;;;28.50;14.02;;;20.50;99.90;;;;;;5028709;28;20041;-74
2021/06/19 03:14:42;;;;;;;30.23;15.68;;;20.40;99.90;;;;;;5023863;28;20030;-73
2021/06/19 03:17:07;;;;;;;28.42;14.48;;;20.30;99.90;;;;;;5028517;28;20037;-73
2021/06/19 03:19:33;;;;;;;34.05;16.45;;;20.20;99.90;;;;;;5028544;28;20389;-74
2021/06/19 03:22:02;;;;;;;33.33;15.55;;;20.10;99.90;;;;;;5027754;28;20080;-73
2021/06/19 03:24:28;;;;;;;35.40;16.67;;;20.10;99.90;;;;;;5010994;28;20859;-73
2021/06/19 03:26:54;;;;;;;35.72;16.13;;;20.00;99.90;;;;;;5028044;28;20061;-74
2021/06/19 03:29:21;;;;;;;34.97;15.80;;;20.00;99.90;;;;;;5010980;28;20505;-73
2021/06/19 03:31:46;;;;;;;32.85;14.20;;;20.00;99.90;;;;;;5028332;28;20029;-73
2021/06/19 03:34:12;;;;;;;31.52;15.20;;;19.90;99.90;;;;;;5028140;28;20049;-73
2021/06/19 03:36:38;;;;;;;34.20;15.43;;;19.90;99.90;;;;;;5028827;28;20033;-72
2021/06/19 03:39:04;;;;;;;34.90;16.35;;;19.90;99.90;;;;;;5027878;28;20111;-73
2021/06/19 03:41:30;;;;;;;32.35;15.27;;;19.90;99.90;;;;;;5028253;28;20490;-73
2021/06/19 03:43:55;;;;;;;34.35;15.70;;;20.00;99.90;;;;;;5028564;28;20037;-73
2021/06/19 03:46:21;;;;;;;30.15;15.75;;;20.00;99.90;;;;;;5028155;28;20040;-71
2021/06/19 03:48:46;;;;;;;33.65;15.95;;;19.90;99.90;;;;;;5028482;28;20111;-73
2021/06/19 03:51:12;;;;;;;39.10;16.08;;;19.90;99.90;;;;;;5027203;28;20528;-73
2021/06/19 03:53:37;;;;;;;37.67;17.15;;;19.90;99.90;;;;;;5028377;28;20033;-73
2021/06/19 03:56:03;;;;;;;35.80;17.45;;;19.80;99.90;;;;;;5027539;28;20033;-73
2021/06/19 03:58:29;;;;;;;35.85;16.60;;;19.80;99.90;;;;;;5026800;28;20675;-73
2021/06/19 04:00:54;;;;;;;42.58;17.55;;;19.80;99.90;;;;;;5027510;28;20037;-73
2021/06/19 04:03:20;;;;;;;40.90;19.42;;;19.70;99.90;;;;;;5027949;28;20039;-73
2021/06/19 04:05:45;;;;;;;35.85;15.98;;;19.70;99.90;;;;;;5028499;28;20041;-73
2021/06/19 04:08:11;;;;;;;42.50;17.00;;;19.60;99.90;;;;;;5009312;28;20037;-73
2021/06/19 04:10:37;;;;;;;41.70;19.08;;;19.70;99.90;;;;;;5027823;28;20099;-73
2021/06/19 04:13:02;;;;;;;44.25;18.30;;;19.60;99.90;;;;;;5026425;28;20481;-74
2021/06/19 04:15:28;;;;;;;46.50;18.48;;;19.60;99.90;;;;;;5028038;28;20037;-74
2021/06/19 04:17:54;;;;;;;41.10;18.08;;;19.60;99.90;;;;;;5028259;28;20072;-73
2021/06/19 04:20:19;;;;;;;43.15;18.92;;;19.60;99.90;;;;;;5027308;28;20068;-73
2021/06/19 04:22:46;;;;;;;48.58;19.42;;;19.60;99.90;;;;;;5022755;28;20091;-72
2021/06/19 04:25:13;;;;;;;50.03;20.40;;;19.60;99.90;;;;;;5027074;28;20584;-73
2021/06/19 04:27:46;;;;;;;49.45;20.40;;;19.60;99.90;;;;;;5028308;28;20455;-71
2021/06/19 04:30:13;;;;;;;49.72;21.30;;;19.60;99.90;;;;;;5027045;28;20022;-72
2021/06/19 04:32:40;;;;;;;44.60;19.00;;;19.60;99.90;;;;;;5027387;28;20029;-72
2021/06/19 04:35:07;;;;;;;42.53;20.10;;;19.60;99.90;;;;;;5027175;28;20096;-74
2021/06/19 04:37:32;;;;;;;46.95;19.67;;;19.60;99.90;;;;;;5027394;28;20041;-72
2021/06/19 04:42:39;;;;;;;43.55;19.38;;;19.60;99.90;;;;;;5026983;28;20076;-71
2021/06/19 04:45:07;;;;;;;46.45;18.30;;;19.60;99.90;;;;;;5027354;28;20124;-72
2021/06/19 04:47:33;;;;;;;39.88;17.00;;;19.60;99.90;;;;;;5026718;28;20040;-72
2021/06/19 04:50:00;;;;;;;41.60;16.23;;;19.60;99.90;;;;;;5027374;28;20025;-72
2021/06/19 04:52:26;;;;;;;39.80;15.85;;;19.70;99.90;;;;;;5026288;28;20099;-73
2021/06/19 04:54:54;;;;;;;45.50;17.05;;;19.70;99.90;;;;;;5027309;28;20061;-72
2021/06/19 04:57:20;;;;;;;36.42;15.30;;;19.80;99.90;;;;;;5027129;28;20404;-72
2021/06/19 04:59:46;;;;;;;35.45;15.35;;;19.80;99.90;;;;;;5026125;28;20030;-72
2021/06/19 05:02:12;;;;;;;32.28;13.40;;;19.80;99.90;;;;;;5026620;28;20079;-72
2021/06/19 05:04:38;;;;;;;27.55;12.00;;;19.80;99.90;;;;;;5026903;28;20795;-72
2021/06/19 05:07:03;;;;;;;26.65;11.65;;;19.80;99.90;;;;;;5027066;28;20490;-72
2021/06/19 05:09:29;;;;;;;25.98;12.23;;;19.90;99.90;;;;;;5026769;28;20036;-72
2021/06/19 05:11:55;;;;;;;23.25;11.85;;;19.90;99.90;;;;;;5026858;28;20034;-72
2021/06/19 05:14:20;;;;;;;30.70;11.85;;;19.90;99.90;;;;;;5026231;28;20041;-72
2021/06/19 05:16:46;;;;;;;21.63;10.52;;;19.90;99.90;;;;;;5028088;28;20033;-72
2021/06/19 05:19:12;;;;;;;26.10;11.18;;;19.90;99.90;;;;;;5027676;28;20034;-72
2021/06/19 05:21:39;;;;;;;24.02;11.05;;;19.90;99.90;;;;;;5026391;28;20029;-72
2021/06/19 05:24:05;;;;;;;26.70;12.15;;;19.90;99.90;;;;;;5009188;28;20098;-72
2021/06/19 05:26:31;;;;;;;28.08;12.07;;;19.90;99.90;;;;;;5025936;28;20049;-72
2021/06/19 05:28:56;;;;;;;25.08;10.93;;;19.90;99.90;;;;;;5026238;28;20413;-72
2021/06/19 05:31:22;;;;;;;20.42;10.10;;;19.80;99.90;;;;;;5025746;28;20037;-73
2021/06/19 05:33:47;;;;;;;22.98;10.32;;;19.90;99.90;;;;;;5026832;28;20029;-72
2021/06/19 05:36:13;;;;;;;24.90;10.43;;;19.90;99.90;;;;;;5026529;28;20122;-72
2021/06/19 05:38:38;;;;;;;22.73;10.60;;;19.90;99.90;;;;;;5025891;28;20112;-71
2021/06/19 05:41:04;;;;;;;22.70;10.43;;;20.00;99.90;;;;;;5025627;28;20053;-73
2021/06/19 05:43:30;;;;;;;27.40;11.00;;;20.00;99.90;;;;;;5026194;28;20041;-73
2021/06/19 05:45:55;;;;;;;23.23;10.40;;;20.00;99.90;;;;;;5025266;28;20037;-72
2021/06/19 05:48:21;;;;;;;24.00;10.38;;;20.00;99.90;;;;;;5026385;28;20041;-73
2021/06/19 05:50:46;;;;;;;23.13;10.02;;;20.00;99.90;;;;;;5025368;28;20124;-73
2021/06/19 05:53:12;;;;;;;21.08;10.40;;;20.00;99.90;;;;;;5026050;28;20072;-73
2021/06/19 05:55:38;;;;;;;18.10;8.20;;;20.00;99.90;;;;;;5025819;28;20668;-73
2021/06/19 05:58:04;;;;;;;14.25;6.63;;;20.00;99.90;;;;;;5025796;28;20036;-73
2021/06/19 06:00:29;;;;;;;15.35;6.60;;;19.90;99.90;;;;;;5024100;28;20042;-73
2021/06/19 06:02:55;;;;;;;13.85;6.80;;;19.90;99.90;;;;;;5041169;28;20038;-72
2021/06/19 06:05:20;;;;;;;12.68;6.47;;;19.80;99.90;;;;;;5025693;28;20378;-73
2021/06/19 06:07:46;;;;;;;14.73;6.63;;;19.80;99.90;;;;;;5040868;28;20033;-72
2021/06/19 06:10:12;;;;;;;14.30;6.20;;;19.90;99.90;;;;;;5025535;28;20042;-73
2021/06/19 06:12:38;;;;;;;13.95;5.78;;;19.90;99.90;;;;;;5023473;28;20025;-73
2021/06/19 06:15:05;;;;;;;14.48;7.00;;;20.00;99.90;;;;;;5024821;28;20512;-73
2021/06/19 06:17:30;;;;;;;12.00;6.28;;;19.90;99.90;;;;;;5006520;28;20080;-74
2021/06/19 06:19:56;;;;;;;12.02;6.32;;;19.90;99.90;;;;;;5024998;28;20478;-73
2021/06/19 06:22:21;;;;;;;12.07;6.57;;;19.90;99.90;;;;;;5007107;28;20557;-73
2021/06/19 06:24:47;;;;;;;11.55;6.18;;;19.80;99.90;;;;;;5024640;28;20116;-72
2021/06/19 06:27:12;;;;;;;11.35;5.70;;;19.80;99.90;;;;;;5024901;28;20124;-73
2021/06/19 06:29:38;;;;;;;12.50;6.05;;;19.90;99.90;;;;;;5039750;28;20029;-72
2021/06/19 06:32:04;;;;;;;10.02;5.50;;;19.80;99.90;;;;;;5024671;28;20030;-73
2021/06/19 06:34:29;;;;;;;11.55;5.32;;;19.80;99.90;;;;;;5025260;28;20517;-72
2021/06/19 06:36:55;;;;;;;9.73;5.28;;;20.00;99.90;;;;;;5024826;28;20021;-73
2021/06/19 06:39:21;;;;;;;10.85;5.00;;;20.00;99.90;;;;;;5025157;28;20036;-73
2021/06/19 06:41:47;;;;;;;11.13;5.10;;;20.00;99.90;;;;;;5024116;28;20508;-73
2021/06/19 06:44:12;;;;;;;7.80;4.85;;;19.90;99.90;;;;;;5025126;28;20143;-72
2021/06/19 06:46:38;;;;;;;8.10;4.45;;;19.90;99.90;;;;;;5028181;28;20037;-73
2021/06/19 06:49:04;;;;;;;5.82;4.00;;;19.90;99.90;;;;;;5011128;28;20057;-72
2021/06/19 06:51:33;;;;;;;7.22;4.13;;;19.90;99.90;;;;;;5029426;28;20254;-72
2021/06/19 06:53:58;;;;;;;7.53;4.05;;;19.90;99.90;;;;;;5011085;28;20032;-72
2021/06/19 06:56:24;;;;;;;7.85;3.65;;;19.80;99.90;;;;;;5029385;28;20045;-72
2021/06/19 06:58:49;;;;;;;7.18;3.50;;;19.90;99.90;;;;;;5000516;28;20132;-73
2021/06/19 07:01:16;;;;;;;5.97;3.58;;;19.90;99.90;;;;;;5009911;28;20124;-72
2021/06/19 07:03:41;;;;;;;7.80;4.45;;;19.90;99.90;;;;;;5026474;28;20038;-72
2021/06/19 07:06:07;;;;;;;6.80;3.58;;;19.90;99.90;;;;;;5026194;28;20048;-72
2021/06/19 07:08:32;;;;;;;7.28;3.97;;;19.90;99.90;;;;;;5026321;28;20157;-72
2021/06/19 07:10:58;;;;;;;7.57;3.65;;;19.90;99.90;;;;;;5023153;28;20030;-73
2021/06/19 07:13:24;;;;;;;6.28;3.95;;;19.90;99.90;;;;;;5023132;28;20033;-72
2021/06/19 07:15:50;;;;;;;7.78;3.90;;;20.00;99.90;;;;;;5024971;28;20037;-73
2021/06/19 07:18:15;;;;;;;7.68;4.55;;;20.00;99.90;;;;;;5023215;28;20074;-72
2021/06/19 07:20:41;;;;;;;8.00;4.60;;;20.00;99.90;;;;;;5042406;28;20397;-72
2021/06/19 07:23:06;;;;;;;9.00;4.75;;;19.90;99.90;;;;;;5018936;28;20041;-73
2021/06/19 07:25:32;;;;;;;9.90;5.30;;;19.90;99.90;;;;;;5024919;28;20048;-72
2021/06/19 07:27:59;;;;;;;11.70;5.45;;;19.90;99.90;;;;;;5024269;28;20950;-72
2021/06/19 07:30:26;;;;;;;10.20;5.32;;;19.90;99.90;;;;;;5025216;28;20037;-72
2021/06/19 07:32:52;;;;;;;10.38;4.80;;;20.00;99.90;;;;;;5023814;28;20575;-73
2021/06/19 07:35:17;;;;;;;10.82;5.78;;;20.10;99.90;;;;;;5023483;28;20458;-72
2021/06/19 07:37:43;;;;;;;9.25;5.53;;;20.20;99.90;;;;;;5024674;28;20048;-72
2021/06/19 07:40:10;;;;;;;9.60;5.30;;;20.30;99.90;;;;;;5026073;28;20124;-73
2021/06/19 07:42:36;;;;;;;8.80;5.15;;;20.30;99.90;;;;;;5025736;28;20137;-72
2021/06/19 07:45:06;;;;;;;10.88;5.22;;;20.40;99.90;;;;;;5007567;28;20120;-72
2021/06/19 07:47:31;;;;;;;7.15;4.30;;;20.40;99.90;;;;;;5026657;28;20555;-72
2021/06/19 07:49:57;;;;;;;9.05;4.38;;;20.40;99.90;;;;;;5026037;28;20033;-72
2021/06/19 07:52:22;;;;;;;6.30;4.07;;;20.50;99.90;;;;;;5026754;28;20033;-72
2021/06/19 07:54:48;;;;;;;7.57;4.57;;;20.40;99.90;;;;;;5026656;28;20026;-72
2021/06/19 07:57:14;;;;;;;8.45;4.40;;;20.60;99.90;;;;;;5015699;28;20516;-73
2021/06/19 07:59:40;;;;;;;7.50;4.35;;;20.60;99.90;;;;;;5022764;28;20160;-73
2021/06/19 08:02:06;;;;;;;7.75;4.00;;;20.70;99.90;;;;;;5022010;28;20146;-74
2021/06/19 08:04:33;;;;;;;7.80;3.67;;;20.70;99.90;;;;;;5023593;28;20569;-73
2021/06/19 08:06:58;;;;;;;9.68;3.60;;;20.80;99.90;;;;;;5022810;28;20553;-74
2021/06/19 08:09:24;;;;;;;4.45;2.38;;;20.80;99.90;;;;;;5024009;28;20175;-73
2021/06/19 08:11:50;;;;;;;4.30;2.30;;;21.00;99.90;;;;;;5023140;28;20298;-73
2021/06/19 08:14:16;;;;;;;4.13;2.25;;;21.20;99.90;;;;;;5005257;28;20176;-71
2021/06/19 08:16:46;;;;;;;3.33;2.00;;;21.30;99.90;;;;;;5024053;28;20081;-72
2021/06/19 08:19:13;;;;;;;4.40;2.10;;;21.30;99.90;;;;;;5022015;28;20042;-72
2021/06/19 08:21:39;;;;;;;3.17;1.75;;;21.30;99.90;;;;;;5006116;28;20044;-72
2021/06/19 08:24:05;;;;;;;5.05;1.77;;;21.20;99.90;;;;;;5022950;28;20402;-72
2021/06/19 08:26:30;;;;;;;3.95;1.88;;;21.10;99.90;;;;;;5007925;28;20041;-72
2021/06/19 08:28:56;;;;;;;4.68;1.73;;;21.00;99.90;;;;;;5023730;28;20041;-72
2021/06/19 08:31:22;;;;;;;1.73;1.38;;;21.00;99.90;;;;;;5022781;28;20038;-72
2021/06/19 08:33:47;;;;;;;2.00;1.42;;;20.90;99.90;;;;;;5005267;28;20030;-72
2021/06/19 08:36:13;;;;;;;2.58;1.67;;;20.80;99.90;;;;;;5023597;28;20042;-72
2021/06/19 08:38:41;;;;;;;1.80;1.50;;;20.70;99.90;;;;;;5023492;28;20095;-72
2021/06/19 08:41:08;;;;;;;1.90;1.17;;;20.60;99.90;;;;;;5022165;28;20045;-72
2021/06/19 08:43:40;;;;;;;1.92;1.42;;;20.60;99.90;;;;;;5023405;28;20092;-72
2021/06/19 08:46:09;;;;;;;2.03;1.30;;;20.60;99.90;;;;;;5021803;28;20056;-73
2021/06/19 08:48:37;;;;;;;2.15;1.50;;;20.50;99.90;;;;;;5023863;28;20061;-72
2021/06/19 08:51:03;;;;;;;2.28;1.20;;;20.40;99.90;;;;;;5023509;28;20159;-72
2021/06/19 08:53:29;;;;;;;2.28;1.15;;;20.30;99.90;;;;;;5009039;28;20040;-72
2021/06/19 08:55:54;;;;;;;1.40;0.93;;;20.20;99.90;;;;;;5022722;28;20034;-72
2021/06/19 08:58:20;;;;;;;2.20;1.60;;;20.20;99.90;;;;;;5022543;28;20472;-72
2021/06/19 09:00:46;;;;;;;2.10;1.48;;;20.10;99.90;;;;;;5023119;28;20045;-72
2021/06/19 09:03:21;;;;;;;3.00;2.15;;;20.10;99.90;;;;;;5022203;28;20033;-72
2021/06/19 09:05:47;;;;;;;2.05;1.65;;;20.10;99.90;;;;;;5021971;28;20137;-72
2021/06/19 09:08:13;;;;;;;6.25;2.15;;;20.10;99.90;;;;;;5021944;28;20037;-71
2021/06/19 09:10:38;;;;;;;3.47;1.90;;;20.10;99.90;;;;;;5021400;28;20084;-72
2021/06/19 09:13:14;;;;;;;3.47;1.88;;;20.10;99.90;;;;;;5022942;28;20099;-72
2021/06/19 09:15:50;;;;;;;3.63;2.00;;;20.00;99.90;;;;;;5022973;28;20166;-72
2021/06/19 09:18:17;;;;;;;8.05;1.85;;;20.10;99.90;;;;;;5020360;28;20049;-71
2021/06/19 09:20:52;;;;;;;2.03;1.83;;;20.00;99.90;;;;;;5021921;28;20119;-73
2021/06/19 09:23:35;;;;;;;4.22;2.47;;;20.00;99.90;;;;;;5022072;28;20037;-72
2021/06/19 09:26:05;;;;;;;3.35;2.03;;;20.00;99.90;;;;;;5021784;28;20099;-71
2021/06/19 09:28:30;;;;;;;3.72;2.63;;;20.10;99.90;;;;;;5021427;28;20053;-73
2021/06/19 09:30:56;;;;;;;4.18;2.60;;;20.10;99.90;;;;;;5021870;28;20042;-72
2021/06/19 09:33:21;;;;;;;4.10;2.72;;;20.30;99.90;;;;;;5021644;28;20045;-72
2021/06/19 09:35:47;;;;;;;4.47;2.40;;;20.30;99.90;;;;;;5021925;28;20398;-72
2021/06/19 09:38:15;;;;;;;4.80;2.30;;;20.50;99.90;;;;;;5021945;28;20045;-72
2021/06/19 09:40:46;;;;;;;4.75;2.05;;;20.60;99.90;;;;;;5002544;28;20661;-76
2021/06/19 09:43:23;;;;;;;5.18;2.78;;;20.60;99.90;;;;;;5022108;28;20072;-73
2021/06/19 09:46:04;;;;;;;6.18;3.33;;;20.50;99.90;;;;;;5021825;28;20132;-72
2021/06/19 09:48:34;;;;;;;5.43;3.72;;;20.40;99.90;;;;;;4985723;28;20545;-72
2021/06/19 09:51:09;;;;;;;;;;;20.30;99.90;;;;;;5018555;28;20025;-72
2021/06/19 09:53:35;;;;;;;12.70;3.95;;;20.10;99.90;;;;;;5016462;28;20373;-71
2021/06/19 09:56:05;;;;;;;6.07;3.30;;;20.00;99.90;;;;;;5020984;28;20060;-72
2021/06/19 09:58:41;;;;;;;;;;;20.10;99.90;;;;;;5018900;28;20493;-71
2021/06/19 10:01:07;;;;;;;5.60;2.78;;;20.10;99.90;;;;;;5003963;28;19928;-71
2021/06/19 10:03:53;;;;;;;9.13;3.20;;;20.10;99.90;;;;;;5021630;28;20033;-71
2021/06/19 10:06:18;;;;;;;5.40;3.30;;;20.20;99.90;;;;;;5021666;28;20033;-70
2021/06/19 10:08:49;;;;;;;8.57;3.60;;;20.30;99.90;;;;;;5021498;28;20044;-72
2021/06/19 10:11:15;;;;;;;4.82;3.20;;;20.30;99.90;;;;;;5002954;28;20056;-72
2021/06/19 10:13:44;;;;;;;7.18;3.80;;;20.30;99.90;;;;;;5021568;28;20501;-72
2021/06/19 10:16:12;;;;;;;5.15;3.53;;;20.40;99.90;;;;;;5021098;28;20033;-71
2021/06/19 10:18:42;;;;;;;6.55;3.47;;;20.50;99.90;;;;;;5021519;28;20567;-72
2021/06/19 10:21:08;;;;;;;5.30;3.43;;;20.50;99.90;;;;;;5017710;28;20450;-72
2021/06/19 10:23:34;;;;;;;3.92;3.00;;;20.50;99.90;;;;;;5021105;28;20298;-71
2021/06/19 10:26:00;;;;;;;6.18;4.07;;;20.50;99.90;;;;;;5021057;28;20422;-77
2021/06/19 10:28:28;;;;;;;4.68;3.35;;;20.50;99.90;;;;;;5021463;28;20041;-71
2021/06/19 10:30:55;;;;;;;4.22;3.08;;;20.40;99.90;;;;;;5022122;28;20026;-71
2021/06/19 10:33:28;;;;;;;5.55;3.63;;;20.40;99.90;;;;;;5025079;28;20032;-71
2021/06/19 10:36:01;;;;;;;5.18;3.58;;;20.40;99.90;;;;;;5025854;28;20044;-71
2021/06/19 10:38:27;;;;;;;4.72;3.10;;;20.40;99.90;;;;;;5021739;28;20045;-71
2021/06/19 10:40:58;;;;;;;5.05;3.45;;;20.40;99.90;;;;;;5024209;28;20021;-71
2021/06/19 10:43:26;;;;;;;6.72;3.78;;;20.50;99.90;;;;;;5006143;28;20049;-71
2021/06/19 10:45:52;;;;;;;5.63;3.13;;;20.60;99.90;;;;;;5007355;28;20605;-71
2021/06/19 10:48:29;;;;;;;6.18;2.92;;;20.80;99.90;;;;;;5020384;28;20149;-72
2021/06/19 10:51:26;;;;;;;5.38;3.83;;;20.80;99.90;;;;;;5021724;28;20155;-71
2021/06/19 10:54:14;;;;;;;4.72;3.42;;;20.80;99.90;;;;;;5005585;28;20033;-71
2021/06/19 10:56:43;;;;;;;9.02;3.83;;;20.80;99.90;;;;;;5022932;28;20465;-72
2021/06/19 10:59:17;;;;;;;7.80;3.60;;;20.60;99.90;;;;;;5007332;28;20052;-71
2021/06/19 11:01:42;;;;;;;8.35;3.42;;;20.60;99.90;;;;;;5025593;28;20378;-71
2021/06/19 11:04:38;;;;;;;6.03;3.15;;;20.50;99.90;;;;;;5022486;28;20028;-72
2021/06/19 11:07:31;;;;;;;5.60;3.80;;;20.40;99.90;;;;;;5001994;28;20045;-72
2021/06/19 11:09:57;;;;;;;6.13;3.30;;;20.20;99.90;;;;;;5003439;28;20041;-73
2021/06/19 11:12:24;;;;;;;5.20;3.17;;;20.40;99.90;;;;;;5019159;28;20038;-72
2021/06/19 11:14:51;;;;;;;5.57;3.45;;;20.40;99.90;;;;;;5023219;28;20034;-73
2021/06/19 11:17:26;;;;;;;5.10;3.45;;;20.40;99.90;;;;;;5021519;28;20542;-73
2021/06/19 11:20:22;;;;;;;4.90;3.22;;;20.50;99.90;;;;;;5021949;28;20048;-73
2021/06/19 11:22:53;;;;;;;5.35;3.60;;;20.50;99.90;;;;;;5018469;28;20040;-72
2021/06/19 11:25:40;;;;;;;5.75;3.47;;;20.50;99.90;;;;;;5038627;28;20095;-73
2021/06/19 11:28:18;;;;;;;7.90;4.07;;;20.50;99.90;;;;;;5022335;28;20029;-73
2021/06/19 11:30:46;;;;;;;5.45;3.72;;;20.60;99.90;;;;;;5003336;28;20034;-74
2021/06/19 11:33:19;;;;;;;6.10;3.63;;;20.70;99.90;;;;;;5028137;28;20112;-73
2021/06/19 11:35:47;;;;;;;8.95;4.30;;;20.90;99.90;;;;;;5027207;28;20410;-74
2021/06/19 11:38:14;;;;;;;4.05;2.47;;;20.90;99.90;;;;;;5028273;28;20037;-73
2021/06/19 11:40:40;;;;;;;4.82;2.72;;;21.00;99.90;;;;;;5027958;28;20110;-72
2021/06/19 11:43:07;;;;;;;6.53;2.70;;;21.00;99.90;;;;;;5028094;28;20573;-72
2021/06/19 11:45:34;;;;;;;6.18;3.00;;;20.90;99.90;;;;;;5028088;28;20095;-71
2021/06/19 11:48:00;;;;;;;4.20;2.70;;;20.70;99.90;;;;;;5027897;28;20057;-72
2021/06/19 11:50:34;;;;;;;4.22;2.70;;;20.60;99.90;;;;;;5010373;28;20497;-72
2021/06/19 11:53:27;;;;;;;5.55;2.40;;;20.70;99.90;;;;;;5027812;28;20033;-72
2021/06/19 11:56:30;;;;;;;6.47;2.40;;;20.70;99.90;;;;;;5023549;28;20127;-73
2021/06/19 11:59:03;;;;;;;4.80;2.42;;;20.90;99.90;;;;;;4933853;29;20055;-72
2021/06/19 12:01:33;;;;;;;5.93;2.75;;;21.00;99.90;;;;;;5011057;28;20037;-72
2021/06/19 12:04:03;;;;;;;6.82;3.65;;;21.10;99.90;;;;;;5009978;28;20453;-72
2021/06/19 12:06:36;;;;;;;7.80;3.15;;;21.00;99.90;;;;;;5028240;28;20063;-71
2021/06/19 12:09:27;;;;;;;10.00;3.78;;;21.00;99.90;;;;;;5027754;28;20533;-72
2021/06/19 12:12:01;;;;;;;5.85;4.03;;;21.10;99.90;;;;;;5024207;28;20064;-72
2021/06/19 12:14:32;;;;;;;6.30;3.72;;;21.00;99.90;;;;;;5025756;28;20037;-71
2021/06/19 12:17:00;;;;;;;6.90;3.72;;;20.80;99.90;;;;;;5027763;28;20407;-71
2021/06/19 12:19:31;;;;;;;4.55;3.17;;;20.70;99.90;;;;;;5027718;28;20561;-71
2021/06/19 12:21:59;;;;;;;6.55;3.45;;;20.70;99.90;;;;;;5009074;28;20030;-71
2021/06/19 12:24:26;;;;;;;6.47;4.18;;;20.60;99.90;;;;;;5010904;28;20386;-72
2021/06/19 12:27:15;;;;;;;8.45;3.60;;;20.60;99.90;;;;;;5027861;28;20589;-72
2021/06/19 12:29:45;;;;;;;7.10;4.47;;;20.50;99.90;;;;;;5026372;28;20037;-72
2021/06/19 12:32:41;;;;;;;6.15;4.20;;;20.60;99.90;;;;;;5027492;28;20042;-72
2021/06/19 12:35:10;;;;;;;6.03;3.60;;;20.70;99.90;;;;;;5007814;28;20440;-72
2021/06/19 12:37:39;;;;;;;7.03;4.30;;;20.70;99.90;;;;;;5027936;28;20124;-73
2021/06/19 12:40:08;;;;;;;6.03;3.88;;;20.80;99.90;;;;;;5008645;28;20030;-72
2021/06/19 12:42:46;;;;;;;9.27;5.15;;;20.80;99.90;;;;;;5008934;28;20091;-72
2021/06/19 12:45:23;;;;;;;8.68;4.68;;;20.90;99.90;;;;;;5019191;23;20417;-76
2021/06/19 12:47:50;;;;;;;6.75;4.22;;;21.00;99.90;;;;;;5009398;28;20041;-74